Loman, Minnesota
Current Conditions -  °F | °C
As of 5:55 PM on Tuesday 25 Nov 2014 (Local Time) from KINL Reporting Station
Broken Clouds Broken Clouds  
Wind Chill:   Ceiling: 8500
Heat Index:   Visibility: 10mi
Dew Point:   Wind: 0mph
Humidity: 84%   Direction: NA
Pressure: 29.98"   Gusts: NA
Location:  48.51°N, 93.8°W
Report Text: KINL 252355Z AUTO 00000KT 10SM BKN085 BKN120 M13/M15 A2998 RMK AO2 SLP185 T11281150 11078 21128 53014 $
Loading
Personal Weather Stations






























Interactive Weather Map New forecast layout! Learn more

10-Day Weather Forecast

Advertisements
Track Severe Weather on mobile